createdAt,value
2023-01-30T00:01:45.080Z,25.93
2023-01-30T00:04:17.154Z,24.00
2023-01-30T00:06:58.856Z,23.07
2023-01-30T00:09:27.318Z,27.10
2023-01-30T00:12:04.031Z,27.73
2023-01-30T00:14:38.885Z,22.40
2023-01-30T00:17:07.653Z,24.57
2023-01-30T00:19:42.888Z,26.03
2023-01-30T00:22:11.395Z,24.80
2023-01-30T00:24:45.946Z,23.03
2023-01-30T00:27:15.840Z,23.07
2023-01-30T00:32:39.267Z,22.87
2023-01-30T00:35:14.921Z,26.47
2023-01-30T00:37:43.313Z,23.93
2023-01-30T00:40:20.642Z,25.93
2023-01-30T00:43:07.623Z,25.33
2023-01-30T00:45:59.984Z,26.53
2023-01-30T00:48:28.916Z,25.00
2023-01-30T00:51:03.924Z,25.07
2023-01-30T00:53:32.416Z,25.97
2023-01-30T00:56:07.944Z,26.07
2023-01-30T00:58:37.530Z,25.40
2023-01-30T01:01:13.038Z,26.73
2023-01-30T01:03:41.751Z,26.63
2023-01-30T01:06:23.028Z,28.03
2023-01-30T01:08:51.419Z,26.00
2023-01-30T01:11:32.103Z,25.60
2023-01-30T01:14:06.259Z,23.53
2023-01-30T01:16:42.124Z,22.43
2023-01-30T01:19:10.930Z,21.77
2023-01-30T01:21:45.939Z,27.83
2023-01-30T01:24:15.944Z,24.70
2023-01-30T01:26:52.128Z,22.07
2023-01-30T01:29:22.088Z,25.33
2023-01-30T01:31:57.017Z,21.43
2023-01-30T01:34:25.306Z,20.63
2023-01-30T01:36:59.948Z,20.47
2023-01-30T01:39:49.002Z,21.93
2023-01-30T01:42:22.997Z,20.60
2023-01-30T01:45:18.931Z,20.03
2023-01-30T01:48:05.163Z,19.73
2023-01-30T01:50:42.234Z,21.20
2023-01-30T01:53:21.319Z,19.03
2023-01-30T01:55:53.792Z,19.67
2023-01-30T01:58:34.136Z,15.93
2023-01-30T02:01:06.879Z,16.47
2023-01-30T02:03:45.998Z,16.27
2023-01-30T02:06:23.773Z,16.10
2023-01-30T02:09:01.999Z,16.57
2023-01-30T02:11:38.554Z,16.43
2023-01-30T02:14:15.212Z,17.20
2023-01-30T02:16:48.061Z,16.60
2023-01-30T02:19:37.329Z,14.10
2023-01-30T02:22:35.028Z,16.73
2023-01-30T02:25:34.381Z,13.40
2023-01-30T02:28:48.155Z,16.30
2023-01-30T02:31:29.106Z,15.67
2023-01-30T02:34:18.158Z,13.73
2023-01-30T02:37:00.643Z,14.00
2023-01-30T02:39:49.045Z,15.97
2023-01-30T02:42:26.457Z,13.80
2023-01-30T02:45:10.246Z,13.53
2023-01-30T02:47:44.041Z,13.10
2023-01-30T02:50:22.109Z,14.03
2023-01-30T02:52:50.798Z,14.93
2023-01-30T02:55:31.098Z,15.30
2023-01-30T02:57:59.886Z,15.37
2023-01-30T03:00:47.019Z,16.50
2023-01-30T03:03:41.669Z,15.03
2023-01-30T03:06:39.041Z,15.10
2023-01-30T03:09:18.030Z,16.70
2023-01-30T03:11:57.056Z,15.20
2023-01-30T03:14:30.704Z,17.50
2023-01-30T03:17:08.102Z,15.07
2023-01-30T03:19:38.241Z,15.20
2023-01-30T03:22:13.091Z,15.23
2023-01-30T03:24:42.017Z,16.33
2023-01-30T03:27:20.118Z,16.50
2023-01-30T03:29:48.869Z,16.43
2023-01-30T03:32:24.053Z,16.17
2023-01-30T03:34:54.233Z,13.40
2023-01-30T03:37:32.172Z,12.57
2023-01-30T03:40:00.588Z,15.37
2023-01-30T03:42:36.302Z,13.53
2023-01-30T03:45:06.809Z,13.00
2023-01-30T03:47:44.539Z,16.00
2023-01-30T03:50:14.473Z,17.50
2023-01-30T03:52:49.147Z,13.10
2023-01-30T03:55:18.053Z,12.93
2023-01-30T03:57:53.150Z,14.30
2023-01-30T04:00:22.271Z,12.00
2023-01-30T04:03:05.501Z,12.10
2023-01-30T04:05:35.443Z,15.50
2023-01-30T04:08:11.138Z,16.57
2023-01-30T04:10:39.591Z,19.10
2023-01-30T04:13:15.245Z,19.67
2023-01-30T04:15:43.917Z,19.17
2023-01-30T04:18:19.158Z,16.40
2023-01-30T04:20:49.199Z,18.40
2023-01-30T04:23:24.115Z,19.10
2023-01-30T04:25:52.404Z,21.27
2023-01-30T04:28:27.061Z,20.53
2023-01-30T04:30:56.265Z,20.43
2023-01-30T04:33:31.165Z,21.33
2023-01-30T04:36:02.308Z,22.30
2023-01-30T04:38:38.277Z,19.03
2023-01-30T04:41:13.138Z,17.87
2023-01-30T04:43:41.512Z,22.60
2023-01-30T04:46:16.095Z,21.87
2023-01-30T04:48:44.673Z,20.07
2023-01-30T04:51:21.188Z,18.47
2023-01-30T04:53:49.705Z,18.00
2023-01-30T04:56:26.169Z,19.87
2023-01-30T04:58:54.472Z,17.37
2023-01-30T05:01:32.324Z,18.80
2023-01-30T05:04:07.396Z,16.03
2023-01-30T05:06:44.143Z,17.83
2023-01-30T05:09:12.660Z,21.33
2023-01-30T05:11:47.158Z,13.57
2023-01-30T05:14:15.852Z,16.20
2023-01-30T05:16:50.247Z,15.13
2023-01-30T05:19:19.246Z,16.60
2023-01-30T05:21:56.208Z,17.20
2023-01-30T05:24:24.767Z,16.37
2023-01-30T05:27:00.324Z,17.07
2023-01-30T05:29:28.858Z,15.70
2023-01-30T05:32:04.308Z,17.13
2023-01-30T05:34:39.153Z,15.57
2023-01-30T05:37:09.421Z,14.80
2023-01-30T05:39:44.344Z,14.67
2023-01-30T05:42:12.770Z,14.17
2023-01-30T05:44:48.383Z,16.90
2023-01-30T05:47:16.724Z,17.10
2023-01-30T05:49:51.274Z,13.77
2023-01-30T05:52:21.711Z,14.40
2023-01-30T05:54:56.200Z,13.53
2023-01-30T05:57:24.690Z,16.17
2023-01-30T05:59:59.239Z,14.43
2023-01-30T06:02:47.389Z,17.53
2023-01-30T06:05:22.422Z,15.80
2023-01-30T06:07:52.328Z,17.50
2023-01-30T06:10:27.224Z,16.97
2023-01-30T06:12:55.950Z,19.50
2023-01-30T06:15:31.355Z,16.93
2023-01-30T06:18:02.957Z,16.13
2023-01-30T06:20:38.398Z,15.53
2023-01-30T06:23:08.452Z,16.13
2023-01-30T06:25:43.501Z,14.47
2023-01-30T06:28:11.775Z,13.87
2023-01-30T06:30:46.245Z,13.37
2023-01-30T06:33:14.794Z,14.90
2023-01-30T06:35:51.196Z,12.80
2023-01-30T06:38:21.575Z,22.97
2023-01-30T06:40:58.547Z,14.37
2023-01-30T06:43:27.157Z,16.73
2023-01-30T06:46:02.282Z,16.27
2023-01-30T06:48:30.848Z,12.00
2023-01-30T06:51:06.258Z,13.40
2023-01-30T06:53:36.094Z,13.33
2023-01-30T06:56:11.551Z,14.80
2023-01-30T06:58:39.803Z,14.00
2023-01-30T07:01:14.304Z,15.27
2023-01-30T07:04:02.327Z,11.40
2023-01-30T07:06:38.584Z,14.53
2023-01-30T07:09:09.570Z,11.27
2023-01-30T07:11:44.299Z,12.43
2023-01-30T07:14:12.848Z,12.97
2023-01-30T07:16:48.387Z,10.93
2023-01-30T07:19:16.724Z,12.10
2023-01-30T07:21:51.232Z,14.27
2023-01-30T07:24:21.705Z,13.23
2023-01-30T07:26:57.237Z,15.47
2023-01-30T07:29:25.811Z,10.90
2023-01-30T07:32:01.453Z,14.17
2023-01-30T07:34:29.853Z,13.43
2023-01-30T07:37:05.281Z,13.50
2023-01-30T07:39:36.500Z,17.37
2023-01-30T07:42:12.446Z,12.77
2023-01-30T07:44:40.825Z,11.93
2023-01-30T07:47:15.309Z,10.53
2023-01-30T07:49:43.779Z,11.10
2023-01-30T07:52:18.469Z,14.13
2023-01-30T07:54:48.628Z,14.67
2023-01-30T07:57:23.385Z,13.30
2023-01-30T07:59:51.907Z,12.37
2023-01-30T08:02:27.563Z,13.10
2023-01-30T08:05:03.971Z,12.77
2023-01-30T08:07:40.545Z,10.50
2023-01-30T08:10:12.466Z,10.90
2023-01-30T08:12:48.365Z,11.23
2023-01-30T08:15:17.001Z,13.07
2023-01-30T08:17:52.397Z,13.70
2023-01-30T08:20:21.559Z,15.30
2023-01-30T08:22:56.436Z,12.13
2023-01-30T08:25:26.545Z,12.07
2023-01-30T08:28:01.520Z,12.60
2023-01-30T08:30:31.591Z,11.83
2023-01-30T08:33:07.506Z,9.67
2023-01-30T08:35:35.996Z,13.93
2023-01-30T08:38:13.366Z,15.43
2023-01-30T08:40:44.103Z,7.20
2023-01-30T08:43:19.498Z,9.73
2023-01-30T08:45:48.120Z,10.60
2023-01-30T08:48:23.366Z,12.20
2023-01-30T08:50:54.444Z,12.27
2023-01-30T08:53:30.495Z,9.50
2023-01-30T08:56:00.699Z,10.30
2023-01-30T08:58:35.488Z,7.63
2023-01-30T09:01:07.728Z,11.40
2023-01-30T09:03:43.487Z,11.83
2023-01-30T09:06:18.824Z,10.33
2023-01-30T09:08:53.366Z,11.37
2023-01-30T09:11:23.590Z,6.87
2023-01-30T09:13:58.565Z,11.07
2023-01-30T09:16:27.384Z,11.03
2023-01-30T09:19:02.545Z,11.23
2023-01-30T09:21:32.200Z,11.73
2023-01-30T09:24:07.542Z,14.07
2023-01-30T09:26:37.723Z,10.70
2023-01-30T09:29:12.450Z,13.30
2023-01-30T09:31:40.857Z,11.00
2023-01-30T09:34:16.592Z,12.67
2023-01-30T09:36:45.179Z,9.97
2023-01-30T09:39:20.393Z,16.80
2023-01-30T09:42:28.377Z,9.80
2023-01-30T09:45:28.366Z,11.67
2023-01-30T09:48:12.431Z,13.50
2023-01-30T09:51:03.155Z,12.13
2023-01-30T09:53:44.550Z,10.13
2023-01-30T09:56:13.024Z,11.87
2023-01-30T09:58:57.341Z,10.47
2023-01-30T10:01:32.771Z,10.03
2023-01-30T10:04:22.601Z,9.93
2023-01-30T10:07:09.733Z,10.93
2023-01-30T10:09:53.394Z,9.80
2023-01-30T10:12:42.167Z,11.40
2023-01-30T10:15:45.673Z,14.07
2023-01-30T10:18:43.126Z,12.00
2023-01-30T10:21:26.416Z,12.67
2023-01-30T10:24:31.797Z,12.33
2023-01-30T10:27:06.633Z,12.30
2023-01-30T10:29:39.427Z,8.40
2023-01-30T10:32:24.502Z,11.87
2023-01-30T10:34:55.609Z,13.17
2023-01-30T10:37:40.970Z,12.13
2023-01-30T10:40:20.131Z,12.60
2023-01-30T10:43:01.499Z,12.33
2023-01-30T10:45:36.606Z,10.87
2023-01-30T10:48:42.599Z,13.47
2023-01-30T10:51:29.667Z,12.23
2023-01-30T10:54:02.487Z,12.87
2023-01-30T10:56:45.627Z,14.90
2023-01-30T10:59:24.561Z,9.63
2023-01-30T11:02:06.555Z,11.13
2023-01-30T11:04:48.575Z,12.53
2023-01-30T11:07:24.464Z,12.97
2023-01-30T11:09:52.997Z,13.30
2023-01-30T11:12:27.587Z,10.23
2023-01-30T11:14:59.855Z,9.13
2023-01-30T11:17:42.397Z,11.83
2023-01-30T11:20:18.645Z,13.03
2023-01-30T11:22:55.596Z,12.40
2023-01-30T11:25:24.784Z,8.53
2023-01-30T11:28:04.635Z,9.30
2023-01-30T11:30:37.222Z,11.40
2023-01-30T11:33:20.479Z,8.67
2023-01-30T11:35:57.353Z,10.80
2023-01-30T11:38:35.834Z,10.13
2023-01-30T11:41:09.956Z,12.23
2023-01-30T11:43:47.669Z,13.03
2023-01-30T11:46:19.710Z,14.73
2023-01-30T11:49:09.118Z,7.47
2023-01-30T11:51:55.594Z,8.10
2023-01-30T11:54:38.512Z,12.07
2023-01-30T11:57:11.425Z,10.57
2023-01-30T11:59:52.489Z,10.67
2023-01-30T12:02:24.954Z,10.47
2023-01-30T12:05:09.562Z,11.30
2023-01-30T12:07:47.836Z,12.13
2023-01-30T12:10:35.489Z,12.60
2023-01-30T12:13:26.305Z,13.57
2023-01-30T12:16:24.568Z,8.53
2023-01-30T12:19:02.241Z,9.07
2023-01-30T12:21:45.558Z,7.50
2023-01-30T12:24:23.522Z,11.37
2023-01-30T12:27:09.570Z,12.50
2023-01-30T12:29:43.546Z,8.37
2023-01-30T12:32:23.693Z,16.00
2023-01-30T12:34:52.817Z,8.80
2023-01-30T12:37:45.527Z,12.60
2023-01-30T12:40:25.972Z,9.40
2023-01-30T12:43:17.487Z,10.10
2023-01-30T12:45:56.200Z,10.20
2023-01-30T12:49:11.976Z,14.00
2023-01-30T12:52:01.782Z,8.43
2023-01-30T12:54:53.609Z,7.13
2023-01-30T12:57:35.334Z,11.60
2023-01-30T13:00:25.573Z,8.63
2023-01-30T13:03:15.981Z,9.47
2023-01-30T13:06:15.767Z,12.10
2023-01-30T13:09:11.616Z,10.23
2023-01-30T13:11:51.704Z,9.63
2023-01-30T13:14:34.735Z,9.00
2023-01-30T13:17:34.664Z,11.00
2023-01-30T13:20:16.886Z,7.30
2023-01-30T13:22:54.605Z,8.80
2023-01-30T13:25:38.915Z,9.47
2023-01-30T13:28:14.431Z,11.83
2023-01-30T13:30:53.660Z,10.53
2023-01-30T13:33:25.811Z,9.97
2023-01-30T13:36:04.760Z,10.27
2023-01-30T13:38:36.622Z,12.97
2023-01-30T13:41:13.550Z,10.43
2023-01-30T13:43:46.873Z,10.83
2023-01-30T13:46:31.710Z,10.13
2023-01-30T13:49:09.084Z,8.97
2023-01-30T13:51:58.588Z,15.93
2023-01-30T13:54:40.769Z,11.50
2023-01-30T13:57:27.814Z,10.70
2023-01-30T14:00:20.380Z,8.80
2023-01-30T14:03:32.817Z,16.70
2023-01-30T14:06:28.883Z,11.73
2023-01-30T14:09:06.716Z,10.33
2023-01-30T14:11:39.525Z,13.33
2023-01-30T14:14:33.705Z,9.97
2023-01-30T14:17:17.678Z,10.83
2023-01-30T14:20:03.615Z,11.10
2023-01-30T14:22:43.051Z,11.53
2023-01-30T14:25:41.780Z,10.60
2023-01-30T14:28:52.908Z,8.30
2023-01-30T14:32:01.854Z,8.70
2023-01-30T14:35:14.158Z,12.53
2023-01-30T14:38:25.124Z,7.43
2023-01-30T14:41:26.871Z,13.60
2023-01-30T14:44:02.646Z,10.17
2023-01-30T14:46:54.290Z,11.60
2023-01-30T14:49:51.785Z,12.97
2023-01-30T14:52:39.678Z,12.90
2023-01-30T14:55:20.584Z,9.03
2023-01-30T14:58:03.614Z,12.07
2023-01-30T15:00:36.473Z,12.67
2023-01-30T15:03:15.627Z,12.87
2023-01-30T15:05:50.810Z,11.93
2023-01-30T15:08:29.764Z,13.20
2023-01-30T15:11:18.846Z,11.73
2023-01-30T15:14:14.772Z,13.47
2023-01-30T15:17:07.900Z,10.27
2023-01-30T15:20:13.888Z,10.30
2023-01-30T15:22:59.809Z,14.53
2023-01-30T15:25:47.051Z,10.07
2023-01-30T15:28:35.972Z,13.90
2023-01-30T15:31:25.714Z,11.47
2023-01-30T15:33:56.958Z,11.10
2023-01-30T15:36:34.759Z,12.20
2023-01-30T15:39:06.709Z,9.83
2023-01-30T15:41:45.690Z,14.70
2023-01-30T15:44:44.771Z,11.27
2023-01-30T15:47:44.686Z,14.47
2023-01-30T15:50:13.169Z,8.67
2023-01-30T15:52:51.716Z,17.00
2023-01-30T15:55:31.305Z,13.23
2023-01-30T15:58:10.830Z,13.03
2023-01-30T16:00:50.818Z,10.30
2023-01-30T16:03:30.041Z,14.50
2023-01-30T16:06:06.752Z,13.03
2023-01-30T16:08:43.848Z,17.50
2023-01-30T16:11:13.914Z,14.30
2023-01-30T16:13:49.689Z,11.00
2023-01-30T16:16:21.761Z,14.20
2023-01-30T16:18:59.830Z,15.57
2023-01-30T16:21:33.640Z,12.30
2023-01-30T16:24:11.845Z,11.30
2023-01-30T16:26:44.724Z,12.57
2023-01-30T16:29:23.735Z,12.50
2023-01-30T16:31:55.861Z,13.17
2023-01-30T16:34:37.731Z,11.20
2023-01-30T16:37:09.516Z,7.07
2023-01-30T16:39:45.945Z,11.27
2023-01-30T16:42:27.992Z,10.17
2023-01-30T16:45:19.263Z,9.17
2023-01-30T16:47:49.808Z,10.83
2023-01-30T16:50:27.940Z,10.63
2023-01-30T16:52:57.677Z,12.90
2023-01-30T16:55:37.760Z,12.67
2023-01-30T16:58:15.435Z,13.90
2023-01-30T17:00:53.670Z,14.57
2023-01-30T17:03:29.810Z,11.20
2023-01-30T17:06:18.924Z,13.20
2023-01-30T17:08:54.521Z,14.87
2023-01-30T17:11:40.923Z,15.70
2023-01-30T17:14:21.923Z,13.30
2023-01-30T17:17:09.980Z,11.97
2023-01-30T17:19:39.875Z,15.17
2023-01-30T17:22:16.759Z,20.03
2023-01-30T17:24:45.252Z,12.10
2023-01-30T17:27:19.911Z,14.40
2023-01-30T17:29:52.123Z,16.53
2023-01-30T17:32:26.819Z,14.37
2023-01-30T17:34:56.951Z,17.23
2023-01-30T17:37:31.830Z,16.07
2023-01-30T17:40:02.649Z,14.13
2023-01-30T17:42:37.882Z,10.80
2023-01-30T17:45:07.203Z,15.00
2023-01-30T17:47:41.941Z,14.10
2023-01-30T17:50:15.679Z,13.20
2023-01-30T17:52:50.860Z,14.97
2023-01-30T17:55:20.016Z,20.47
2023-01-30T17:57:56.985Z,15.63
2023-01-30T18:00:25.689Z,15.57
2023-01-30T18:03:01.078Z,14.00
2023-01-30T18:05:38.059Z,16.00
2023-01-30T18:08:12.945Z,12.40
2023-01-30T18:10:41.724Z,12.30
2023-01-30T18:13:16.968Z,14.10
2023-01-30T18:15:45.463Z,17.13
2023-01-30T18:18:22.993Z,13.67
2023-01-30T18:20:52.791Z,11.97
2023-01-30T18:23:27.976Z,16.13
2023-01-30T18:25:56.382Z,16.53
2023-01-30T18:28:31.847Z,16.13
2023-01-30T18:31:00.372Z,13.07
2023-01-30T18:33:34.966Z,17.43
2023-01-30T18:36:08.015Z,19.13
2023-01-30T18:38:43.208Z,13.57
2023-01-30T18:41:12.942Z,14.17
2023-01-30T18:43:48.025Z,16.73
2023-01-30T18:46:18.738Z,14.27
2023-01-30T18:48:55.010Z,31.27
2023-01-30T18:51:26.560Z,22.73
2023-01-30T18:54:02.884Z,12.43
2023-01-30T18:56:33.349Z,17.30
2023-01-30T18:59:11.106Z,18.27
2023-01-30T19:01:42.596Z,17.40
2023-01-30T19:04:18.945Z,16.53
2023-01-30T19:06:48.811Z,16.80
2023-01-30T19:09:26.105Z,12.97
2023-01-30T19:12:11.826Z,12.90
2023-01-30T19:14:47.039Z,15.63
2023-01-30T19:17:16.678Z,10.13
2023-01-30T19:19:52.880Z,17.70
2023-01-30T19:22:22.748Z,15.00
2023-01-30T19:24:57.964Z,18.33
2023-01-30T19:27:26.502Z,15.93
2023-01-30T19:30:02.049Z,16.80
2023-01-30T19:32:30.866Z,10.50
2023-01-30T19:35:05.980Z,15.80
2023-01-30T19:37:36.104Z,18.13
2023-01-30T19:40:17.419Z,15.27
2023-01-30T19:42:46.576Z,15.43
2023-01-30T19:45:21.884Z,15.27
2023-01-30T19:47:50.707Z,11.63
2023-01-30T19:50:26.081Z,19.10
2023-01-30T19:53:08.800Z,16.97
2023-01-30T19:55:43.961Z,14.87
2023-01-30T19:58:12.471Z,14.37
2023-01-30T20:00:48.146Z,15.40
2023-01-30T20:03:16.814Z,15.63
2023-01-30T20:05:59.064Z,11.87
2023-01-30T20:08:36.559Z,17.73
2023-01-30T20:11:13.070Z,16.93
2023-01-30T20:13:43.361Z,14.47
2023-01-30T20:16:21.037Z,13.73
2023-01-30T20:18:50.741Z,13.23
2023-01-30T20:21:28.075Z,15.40
2023-01-30T20:23:58.892Z,17.90
2023-01-30T20:26:38.364Z,17.70
2023-01-30T20:29:09.604Z,10.03
2023-01-30T20:31:46.070Z,15.10
2023-01-30T20:34:15.557Z,16.33
2023-01-30T20:36:50.971Z,14.23
2023-01-30T20:39:22.233Z,13.50
2023-01-30T20:41:56.955Z,13.10
2023-01-30T20:44:25.836Z,13.13
2023-01-30T20:47:01.151Z,13.83
2023-01-30T20:49:30.663Z,14.30
2023-01-30T20:52:05.333Z,12.53
2023-01-30T20:54:42.173Z,13.43
2023-01-30T20:57:10.966Z,12.37
2023-01-30T20:59:45.968Z,14.10
2023-01-30T21:02:14.401Z,16.03
2023-01-30T21:04:56.264Z,11.83
2023-01-30T21:07:31.421Z,15.10
2023-01-30T21:10:08.019Z,15.67
2023-01-30T21:12:36.966Z,14.40
2023-01-30T21:15:11.989Z,17.30
2023-01-30T21:17:40.831Z,13.10
2023-01-30T21:20:17.053Z,13.27
2023-01-30T21:22:46.010Z,15.30
2023-01-30T21:25:22.187Z,10.40
2023-01-30T21:27:50.564Z,18.73
2023-01-30T21:30:26.235Z,8.00
2023-01-30T21:32:55.093Z,15.40
2023-01-30T21:35:30.129Z,14.87
2023-01-30T21:38:15.632Z,16.00
2023-01-30T21:41:14.150Z,22.10
2023-01-30T21:43:42.612Z,14.50
2023-01-30T21:46:17.007Z,12.70
2023-01-30T21:48:45.919Z,11.10
2023-01-30T21:51:21.177Z,14.67
2023-01-30T21:53:49.834Z,20.60
2023-01-30T21:56:26.015Z,17.40
2023-01-30T21:58:55.925Z,15.23
2023-01-30T22:01:31.224Z,13.43
2023-01-30T22:04:01.449Z,17.50
2023-01-30T22:06:44.099Z,14.83
2023-01-30T22:09:15.956Z,17.47
2023-01-30T22:11:53.171Z,14.17
2023-01-30T22:14:22.345Z,16.20
2023-01-30T22:16:57.098Z,18.13
2023-01-30T22:19:25.477Z,17.10
2023-01-30T22:22:01.389Z,16.03
2023-01-30T22:24:30.202Z,15.43
2023-01-30T22:27:07.233Z,16.17
2023-01-30T22:29:36.137Z,16.53
2023-01-30T22:32:11.033Z,20.53
2023-01-30T22:34:39.370Z,18.03
2023-01-30T22:37:14.220Z,19.80
2023-01-30T22:39:42.541Z,17.17
2023-01-30T22:42:19.070Z,17.47
2023-01-30T22:44:47.394Z,20.17
2023-01-30T22:47:22.241Z,16.67
2023-01-30T22:49:50.636Z,16.13
2023-01-30T22:52:26.033Z,15.63
2023-01-30T22:54:54.444Z,18.10
2023-01-30T22:57:31.231Z,24.30
2023-01-30T22:59:59.683Z,19.33
2023-01-30T23:02:34.173Z,19.60
2023-01-30T23:05:09.690Z,18.73
2023-01-30T23:07:45.067Z,15.93
2023-01-30T23:10:13.445Z,19.73
2023-01-30T23:13:07.078Z,21.53
2023-01-30T23:15:39.327Z,19.97
2023-01-30T23:18:32.227Z,18.87
2023-01-30T23:21:01.514Z,19.60
2023-01-30T23:23:36.608Z,17.30
2023-01-30T23:26:05.495Z,17.17
2023-01-30T23:28:43.226Z,17.33
2023-01-30T23:31:15.020Z,17.53
2023-01-30T23:33:50.170Z,26.20
2023-01-30T23:36:18.932Z,21.80
2023-01-30T23:38:57.085Z,16.70
2023-01-30T23:41:27.138Z,19.43
2023-01-30T23:44:05.429Z,24.10
2023-01-30T23:46:35.315Z,20.90
2023-01-30T23:49:13.171Z,19.00
2023-01-30T23:51:43.314Z,24.10
2023-01-30T23:54:20.176Z,25.90
2023-01-30T23:56:48.826Z,17.83
2023-01-30T23:59:25.257Z,20.77
